Time;durP1;ratioP1;P1;durP2;ratioP2;P2;SDS_P1;SDS_P2;PMS_P1;PMS_P2;Temp;Humidity;BMP_temperature;BMP_pressure;BME280_temperature;BME280_humidity;BME280_pressure;Samples;Min_cycle;Max_cycle;Signal;HPM_P1;HPM_P2
2022/07/25 00:00:41;;;;;;;2.08;0.95;;;23.70;65.20;;;;;;4796592;29;20072;-77
2022/07/25 00:03:10;;;;;;;1.45;0.77;;;23.60;65.30;;;;;;4770852;30;20096;-78
2022/07/25 00:05:37;;;;;;;1.77;0.85;;;23.60;65.50;;;;;;4769635;30;20079;-78
2022/07/25 00:08:04;;;;;;;2.63;0.80;;;23.60;65.60;;;;;;4786496;29;20459;-78
2022/07/25 00:10:31;;;;;;;1.65;0.80;;;23.60;65.70;;;;;;4795924;29;20101;-78
2022/07/25 00:12:58;;;;;;;1.67;0.80;;;23.50;65.70;;;;;;4785071;29;20096;-78
2022/07/25 00:15:25;;;;;;;1.33;0.82;;;23.50;65.80;;;;;;4771800;30;20079;-77
2022/07/25 00:17:52;;;;;;;2.03;0.88;;;23.50;65.90;;;;;;4788517;29;20396;-77
2022/07/25 00:20:19;;;;;;;1.38;0.60;;;23.40;66.00;;;;;;4796728;29;20766;-77
2022/07/25 00:22:47;;;;;;;1.83;1.00;;;23.40;66.20;;;;;;4779692;30;20059;-78
2022/07/25 00:25:17;;;;;;;1.58;0.70;;;23.40;66.30;;;;;;4794293;29;20050;-78
2022/07/25 00:27:46;;;;;;;1.50;0.80;;;23.40;66.40;;;;;;4773885;30;20090;-78
2022/07/25 00:30:13;;;;;;;1.42;0.90;;;23.30;67.10;;;;;;4776096;29;20509;-78
2022/07/25 00:32:40;;;;;;;1.60;0.80;;;23.30;67.20;;;;;;4787511;29;20503;-78
2022/07/25 00:35:08;;;;;;;2.00;0.90;;;23.20;66.60;;;;;;4788662;30;20047;-78
2022/07/25 00:37:34;;;;;;;1.88;0.90;;;23.20;66.80;;;;;;4773802;30;20105;-78
2022/07/25 00:40:03;;;;;;;1.42;0.73;;;23.20;66.90;;;;;;4788237;29;20070;-77
2022/07/25 00:42:31;;;;;;;1.92;0.93;;;23.20;67.00;;;;;;4805062;29;20092;-80
2022/07/25 00:45:00;;;;;;;1.08;0.77;;;23.10;67.10;;;;;;4803205;29;20067;-81
2022/07/25 00:47:27;;;;;;;1.63;0.98;;;23.10;67.20;;;;;;4791789;29;20067;-80
2022/07/25 00:49:54;;;;;;;1.98;1.10;;;23.10;67.40;;;;;;4784433;29;20055;-81
2022/07/25 00:52:23;;;;;;;2.13;0.82;;;23.10;67.50;;;;;;4772531;30;20047;-79
2022/07/25 00:54:50;;;;;;;1.90;1.20;;;23.10;67.50;;;;;;4780198;29;20550;-79
2022/07/25 00:57:17;;;;;;;1.77;1.08;;;23.00;67.60;;;;;;4804585;29;20051;-80
2022/07/25 00:59:44;;;;;;;3.03;0.90;;;23.00;67.80;;;;;;4767217;30;20074;-79
2022/07/25 01:02:11;;;;;;;2.03;1.00;;;22.90;67.90;;;;;;4796905;29;20071;-79
2022/07/25 01:04:38;;;;;;;1.83;1.13;;;22.90;68.00;;;;;;4772932;30;20123;-79
2022/07/25 01:07:05;;;;;;;1.77;1.00;;;22.90;68.10;;;;;;4798588;29;20123;-80
2022/07/25 01:09:33;;;;;;;1.70;1.00;;;22.80;68.20;;;;;;4782888;30;20553;-80
2022/07/25 01:12:00;;;;;;;1.80;0.90;;;22.80;68.30;;;;;;4786557;29;21381;-80
2022/07/25 01:14:27;;;;;;;1.77;0.98;;;22.80;68.30;;;;;;4751883;30;20086;-79
2022/07/25 01:16:54;;;;;;;2.33;1.10;;;22.80;68.50;;;;;;4773318;30;20063;-77
2022/07/25 01:19:21;;;;;;;2.00;1.00;;;22.70;68.60;;;;;;4782266;29;20464;-77
2022/07/25 01:21:48;;;;;;;1.67;0.90;;;22.70;68.70;;;;;;4802315;29;20079;-77
2022/07/25 01:24:14;;;;;;;2.47;1.00;;;22.70;68.80;;;;;;4784739;30;20067;-77
2022/07/25 01:26:41;;;;;;;2.38;1.55;;;22.70;68.90;;;;;;4795181;29;20082;-77
2022/07/25 01:29:08;;;;;;;2.97;1.08;;;22.70;68.90;;;;;;4800762;29;20142;-77
2022/07/25 01:31:35;;;;;;;2.25;1.02;;;22.60;69.60;;;;;;4766227;30;20075;-77
2022/07/25 01:34:03;;;;;;;1.75;1.00;;;22.60;69.00;;;;;;4795977;29;20411;-77
2022/07/25 01:36:30;;;;;;;2.25;1.25;;;22.60;69.10;;;;;;4772704;30;20397;-77
2022/07/25 01:38:57;;;;;;;1.67;1.10;;;22.60;69.20;;;;;;4787510;29;20071;-77
2022/07/25 01:41:27;;;;;;;3.00;1.00;;;22.60;69.20;;;;;;4781701;29;20046;-77
2022/07/25 01:43:54;;;;;;;2.80;1.23;;;22.50;69.30;;;;;;4802543;29;20070;-77
2022/07/25 01:46:21;;;;;;;2.25;1.20;;;22.50;69.40;;;;;;4802010;29;20101;-77
2022/07/25 01:48:48;;;;;;;1.98;1.13;;;22.50;69.50;;;;;;4789357;29;20127;-79
2022/07/25 01:51:16;;;;;;;2.90;1.00;;;22.50;69.60;;;;;;4769000;30;20047;-80
2022/07/25 01:53:46;;;;;;;2.67;1.20;;;22.50;69.70;;;;;;4798774;29;20058;-79
2022/07/25 01:56:16;;;;;;;2.28;0.80;;;22.50;69.70;;;;;;4801911;29;20047;-79
2022/07/25 01:58:45;;;;;;;2.15;1.25;;;22.50;69.70;;;;;;4787813;29;20569;-79
2022/07/25 02:01:12;;;;;;;1.90;1.25;;;22.50;69.80;;;;;;4787410;29;20086;-79
2022/07/25 02:03:38;;;;;;;1.80;0.95;;;22.40;69.80;;;;;;4788536;29;20055;-79
2022/07/25 02:06:07;;;;;;;2.13;1.20;;;22.40;69.90;;;;;;4757540;30;20085;-79
2022/07/25 02:08:34;;;;;;;2.45;1.00;;;22.40;70.00;;;;;;4796740;29;20047;-80
2022/07/25 02:11:02;;;;;;;2.40;1.10;;;22.40;70.10;;;;;;4787425;29;20058;-79
2022/07/25 02:13:29;;;;;;;2.40;1.38;;;22.40;70.20;;;;;;4772118;30;20059;-79
2022/07/25 02:15:56;;;;;;;2.13;1.20;;;22.30;70.20;;;;;;4772023;30;20078;-80
2022/07/25 02:18:23;;;;;;;2.28;1.02;;;22.30;70.30;;;;;;4786571;29;20078;-80
2022/07/25 02:20:50;;;;;;;1.88;1.00;;;22.30;70.40;;;;;;4784904;29;20539;-80
2022/07/25 02:23:17;;;;;;;2.55;0.98;;;22.30;71.10;;;;;;4787628;29;20146;-81
2022/07/25 02:25:44;;;;;;;2.38;1.30;;;22.30;70.50;;;;;;4776933;30;20043;-81
2022/07/25 02:28:11;;;;;;;2.22;1.48;;;22.20;70.50;;;;;;4772393;30;20130;-81
2022/07/25 02:30:38;;;;;;;3.30;1.30;;;22.30;70.60;;;;;;4794827;29;20105;-80
2022/07/25 02:33:05;;;;;;;3.58;1.70;;;22.30;70.60;;;;;;4801475;29;20074;-80
2022/07/25 02:35:32;;;;;;;2.88;1.27;;;22.30;70.60;;;;;;4757091;30;20105;-80
2022/07/25 02:37:59;;;;;;;2.00;1.20;;;22.30;70.80;;;;;;4807578;29;20445;-80
2022/07/25 02:40:26;;;;;;;2.13;1.30;;;22.20;70.80;;;;;;4768290;30;20103;-80
2022/07/25 02:42:53;;;;;;;1.98;1.00;;;22.20;70.80;;;;;;4786514;30;20110;-80
2022/07/25 02:45:20;;;;;;;2.55;1.55;;;22.20;70.90;;;;;;4807315;29;20128;-80
2022/07/25 02:47:49;;;;;;;2.58;1.40;;;22.20;71.60;;;;;;4771448;30;20048;-78
2022/07/25 02:50:16;;;;;;;3.45;1.30;;;22.20;71.00;;;;;;4772246;30;20416;-78
2022/07/25 02:52:43;;;;;;;3.30;1.70;;;22.10;71.10;;;;;;4771603;30;20082;-78
2022/07/25 02:55:11;;;;;;;3.05;1.30;;;22.10;71.80;;;;;;4798900;29;20130;-78
2022/07/25 02:57:38;;;;;;;2.50;1.27;;;22.10;71.30;;;;;;4783968;29;20097;-78
2022/07/25 03:00:06;;;;;;;3.08;1.40;;;22.00;71.40;;;;;;4797538;29;20234;-78
2022/07/25 03:02:33;;;;;;;3.70;1.67;;;22.00;71.50;;;;;;4768720;29;20051;-78
2022/07/25 03:05:00;;;;;;;2.80;1.33;;;22.00;71.50;;;;;;4793257;29;20048;-78
2022/07/25 03:07:27;;;;;;;2.38;1.17;;;22.00;71.60;;;;;;4772997;29;20086;-78
2022/07/25 03:09:54;;;;;;;2.50;1.42;;;22.00;71.70;;;;;;4772245;30;20138;-78
2022/07/25 03:12:21;;;;;;;3.20;1.73;;;22.00;71.70;;;;;;4775807;30;20082;-78
2022/07/25 03:14:48;;;;;;;2.05;1.40;;;21.90;71.70;;;;;;4741238;30;20075;-78
2022/07/25 03:17:15;;;;;;;2.03;1.38;;;21.90;71.80;;;;;;4783429;29;20152;-78
2022/07/25 03:19:42;;;;;;;2.45;1.40;;;21.90;71.80;;;;;;4784181;29;20063;-80
2022/07/25 03:22:09;;;;;;;2.25;1.27;;;21.90;71.90;;;;;;4771296;30;20071;-80
2022/07/25 03:24:37;;;;;;;2.38;1.27;;;21.80;71.90;;;;;;4756301;30;20466;-80
2022/07/25 03:27:04;;;;;;;2.58;1.40;;;21.80;72.00;;;;;;4782845;29;20050;-80
2022/07/25 03:29:31;;;;;;;3.85;1.42;;;21.80;72.10;;;;;;4768120;30;20071;-80
2022/07/25 03:31:59;;;;;;;2.42;1.45;;;21.80;72.20;;;;;;4789811;29;20116;-80
2022/07/25 03:34:26;;;;;;;2.65;1.60;;;21.80;72.20;;;;;;4756433;30;20056;-80
2022/07/25 03:36:53;;;;;;;2.40;1.40;;;21.80;72.20;;;;;;4786985;29;20111;-80
2022/07/25 03:39:21;;;;;;;2.25;1.40;;;21.70;72.20;;;;;;4756145;30;20047;-80
2022/07/25 03:41:48;;;;;;;3.15;1.80;;;21.70;72.30;;;;;;4785871;30;20459;-80
2022/07/25 03:44:15;;;;;;;2.80;1.40;;;21.70;72.30;;;;;;4787274;29;20051;-80
2022/07/25 03:46:42;;;;;;;3.10;1.70;;;21.70;73.00;;;;;;4792666;29;20059;-78
2022/07/25 03:49:09;;;;;;;3.63;1.83;;;21.70;72.40;;;;;;4800720;29;20055;-78
2022/07/25 03:51:36;;;;;;;2.33;1.45;;;21.70;72.50;;;;;;4770517;30;20052;-80
2022/07/25 03:54:07;;;;;;;3.33;1.88;;;21.70;72.50;;;;;;4781511;30;20189;-80
2022/07/25 03:56:46;;;;;;;2.72;1.80;;;21.70;72.50;;;;;;4781745;29;20092;-81
2022/07/25 03:59:18;;;;;;;2.42;1.67;;;21.70;72.50;;;;;;4756423;30;20156;-81
2022/07/25 04:01:48;;;;;;;3.28;1.60;;;21.70;72.60;;;;;;4770210;30;20111;-80
2022/07/25 04:04:16;;;;;;;5.40;1.67;;;21.70;72.60;;;;;;4770496;30;20051;-81
2022/07/25 04:06:43;;;;;;;2.97;1.42;;;21.70;72.60;;;;;;4782889;30;20047;-81
2022/07/25 04:09:11;;;;;;;3.13;1.73;;;21.70;73.30;;;;;;4774172;29;20171;-80
2022/07/25 04:11:38;;;;;;;2.80;1.63;;;21.70;72.70;;;;;;4775219;29;20089;-80
2022/07/25 04:14:05;;;;;;;3.28;2.00;;;21.70;72.70;;;;;;4803870;29;20055;-80
2022/07/25 04:16:33;;;;;;;3.20;1.60;;;21.70;72.80;;;;;;4777731;30;20055;-81
2022/07/25 04:19:00;;;;;;;2.60;1.63;;;21.70;72.80;;;;;;4800269;29;20185;-82
2022/07/25 04:21:27;;;;;;;2.35;1.63;;;21.80;72.80;;;;;;4785158;29;20066;-81
2022/07/25 04:23:54;;;;;;;4.03;2.17;;;21.80;72.80;;;;;;4784898;29;20138;-81
2022/07/25 04:26:21;;;;;;;3.05;1.98;;;21.80;73.40;;;;;;4788187;29;20523;-78
2022/07/25 04:28:48;;;;;;;3.22;2.03;;;21.70;72.70;;;;;;4800120;29;20108;-80
2022/07/25 04:31:15;;;;;;;3.13;1.90;;;21.80;72.80;;;;;;4770848;30;20519;-80
2022/07/25 04:33:43;;;;;;;2.70;1.80;;;21.80;72.90;;;;;;4794728;29;20077;-79
2022/07/25 04:36:10;;;;;;;2.78;1.90;;;21.80;73.00;;;;;;4787512;29;20082;-79
2022/07/25 04:38:37;;;;;;;2.65;1.60;;;21.80;73.00;;;;;;4794620;29;20118;-80
2022/07/25 04:41:04;;;;;;;2.80;1.70;;;21.90;73.00;;;;;;4776817;29;20085;-79
2022/07/25 04:43:31;;;;;;;3.15;1.98;;;21.90;72.90;;;;;;4770109;30;20078;-79
2022/07/25 04:45:58;;;;;;;3.83;1.80;;;21.90;72.80;;;;;;4787038;29;20142;-78
2022/07/25 04:48:25;;;;;;;3.00;2.13;;;21.90;72.80;;;;;;4788744;29;20535;-79
2022/07/25 04:50:52;;;;;;;3.90;1.75;;;22.00;72.80;;;;;;4782615;30;20122;-80
2022/07/25 04:53:19;;;;;;;2.80;1.60;;;22.00;72.70;;;;;;4788882;29;20067;-81
2022/07/25 04:55:46;;;;;;;4.53;1.90;;;22.10;72.60;;;;;;4792379;29;20448;-80
2022/07/25 04:58:14;;;;;;;3.20;2.00;;;22.20;72.70;;;;;;4789863;29;20062;-81
2022/07/25 05:00:40;;;;;;;3.88;2.45;;;22.20;72.60;;;;;;4791182;29;20074;-82
2022/07/25 05:03:07;;;;;;;3.22;2.10;;;22.30;72.60;;;;;;4793111;29;20138;-80
2022/07/25 05:05:34;;;;;;;2.83;1.90;;;22.30;72.50;;;;;;4778910;30;20065;-80
2022/07/25 05:08:02;;;;;;;3.70;2.00;;;22.40;72.50;;;;;;4794399;29;20077;-80
2022/07/25 05:10:29;;;;;;;3.78;2.03;;;22.40;72.40;;;;;;4799900;29;20146;-81
2022/07/25 05:12:56;;;;;;;3.15;2.00;;;22.40;72.30;;;;;;4786136;29;20450;-80
2022/07/25 05:15:23;;;;;;;2.53;1.70;;;22.50;72.10;;;;;;4790141;29;20574;-80
2022/07/25 05:17:50;;;;;;;3.67;2.30;;;22.60;72.00;;;;;;4787765;29;20070;-75
2022/07/25 05:20:17;;;;;;;3.28;1.90;;;22.60;71.80;;;;;;4787298;29;20085;-75
2022/07/25 05:22:44;;;;;;;3.17;2.08;;;22.70;71.80;;;;;;4793945;29;20150;-76
2022/07/25 05:25:11;;;;;;;3.28;2.05;;;22.70;71.70;;;;;;4791495;29;20134;-76
2022/07/25 05:27:39;;;;;;;3.70;2.10;;;22.80;72.40;;;;;;4789878;29;20074;-78
2022/07/25 05:30:08;;;;;;;3.10;2.00;;;22.80;71.70;;;;;;4788539;29;20079;-77
2022/07/25 05:32:35;;;;;;;2.88;1.95;;;22.80;71.60;;;;;;4786662;29;20059;-78
2022/07/25 05:35:04;;;;;;;3.30;2.08;;;22.90;71.60;;;;;;4796487;29;20116;-78
2022/07/25 05:37:31;;;;;;;3.38;1.80;;;23.00;71.60;;;;;;4792586;29;20067;-78
2022/07/25 05:39:58;;;;;;;3.63;2.35;;;23.00;71.60;;;;;;4798175;29;20074;-80
2022/07/25 05:42:25;;;;;;;3.03;1.95;;;23.00;71.60;;;;;;4788967;29;20154;-78
2022/07/25 05:44:52;;;;;;;3.13;2.25;;;23.10;71.60;;;;;;4798333;29;20047;-78
2022/07/25 05:47:20;;;;;;;3.70;1.98;;;23.10;71.50;;;;;;4796767;29;20126;-84
2022/07/25 05:49:50;;;;;;;2.85;2.00;;;23.20;71.50;;;;;;4776715;30;20093;-81
2022/07/25 05:52:17;;;;;;;2.97;1.98;;;23.30;71.40;;;;;;4742947;30;20440;-81
2022/07/25 05:54:44;;;;;;;3.25;2.30;;;23.30;71.30;;;;;;4761632;30;20064;-81
2022/07/25 05:57:11;;;;;;;3.40;1.92;;;23.40;71.70;;;;;;4782872;29;20488;-81
2022/07/25 05:59:38;;;;;;;2.67;1.70;;;23.50;70.80;;;;;;4772716;30;20067;-81
2022/07/25 06:02:06;;;;;;;4.25;1.92;;;23.70;70.50;;;;;;4786167;29;20067;-79
2022/07/25 06:04:33;;;;;;;3.00;2.13;;;23.80;70.20;;;;;;4786852;29;20051;-79
2022/07/25 06:07:00;;;;;;;3.10;1.77;;;23.90;69.50;;;;;;4756237;30;20086;-79
2022/07/25 06:09:27;;;;;;;2.88;1.77;;;24.10;69.20;;;;;;4799548;29;20143;-79
2022/07/25 06:11:54;;;;;;;3.78;2.05;;;24.20;68.50;;;;;;4767196;30;20500;-79
2022/07/25 06:14:27;;;;;;;4.47;2.60;;;24.30;68.10;;;;;;4760986;29;20112;-78
2022/07/25 06:16:55;;;;;;;4.65;2.97;;;24.50;67.40;;;;;;4783879;30;20776;-78
2022/07/25 06:19:22;;;;;;;3.88;2.40;;;24.50;66.70;;;;;;4788321;29;20439;-79
2022/07/25 06:21:49;;;;;;;5.90;3.60;;;24.60;66.40;;;;;;4771892;30;20505;-78
2022/07/25 06:24:17;;;;;;;4.18;2.97;;;24.60;65.80;;;;;;4791505;29;20047;-79
2022/07/25 06:26:44;;;;;;;4.88;2.60;;;24.70;65.50;;;;;;4756894;30;20094;-80
2022/07/25 06:29:11;;;;;;;4.85;3.08;;;24.80;65.00;;;;;;4783298;29;20583;-80
2022/07/25 06:31:38;;;;;;;4.80;3.35;;;24.90;64.50;;;;;;4805282;29;20098;-79
2022/07/25 06:34:05;;;;;;;5.03;3.20;;;24.90;65.00;;;;;;4786983;30;20062;-79
2022/07/25 06:36:33;;;;;;;6.60;3.80;;;25.00;64.00;;;;;;4792398;29;20101;-79
2022/07/25 06:39:01;;;;;;;5.82;4.05;;;25.00;63.70;;;;;;4771652;30;20058;-79
2022/07/25 06:41:28;;;;;;;7.40;5.05;;;25.00;63.50;;;;;;4772573;29;20108;-79
2022/07/25 06:43:55;;;;;;;6.47;5.00;;;25.00;63.10;;;;;;4801824;29;20146;-79
2022/07/25 06:46:22;;;;;;;7.43;4.60;;;24.90;63.20;;;;;;4800368;29;20051;-79
2022/07/25 06:48:49;;;;;;;4.88;3.83;;;24.90;63.20;;;;;;4801232;29;20054;-79
2022/07/25 06:51:16;;;;;;;6.15;4.43;;;24.80;63.30;;;;;;4772185;30;20145;-79
2022/07/25 06:53:43;;;;;;;5.90;4.25;;;24.70;63.30;;;;;;4774005;30;20082;-79
2022/07/25 06:56:10;;;;;;;4.85;3.70;;;24.70;63.40;;;;;;4787463;29;20055;-79
2022/07/25 06:58:43;;;;;;;5.05;3.60;;;24.70;63.50;;;;;;4776510;29;20504;-79
2022/07/25 07:01:11;;;;;;;5.07;3.65;;;24.60;63.70;;;;;;4791703;29;20104;-77
2022/07/25 07:03:38;;;;;;;5.22;3.72;;;24.50;63.90;;;;;;4774512;30;20460;-77
2022/07/25 07:06:08;;;;;;;5.25;4.00;;;24.40;64.00;;;;;;4771820;30;20063;-77
2022/07/25 07:08:35;;;;;;;5.70;3.83;;;24.30;64.10;;;;;;4772570;30;20062;-77
2022/07/25 07:11:03;;;;;;;5.50;3.67;;;24.20;64.30;;;;;;4771040;29;20525;-77
2022/07/25 07:13:30;;;;;;;5.43;3.33;;;24.20;64.30;;;;;;4777631;30;20187;-77
2022/07/25 07:15:57;;;;;;;6.30;4.45;;;24.30;64.40;;;;;;4768068;30;20599;-77
2022/07/25 07:18:25;;;;;;;5.18;3.42;;;24.30;64.10;;;;;;4770402;30;20054;-77
2022/07/25 07:20:52;;;;;;;6.90;4.55;;;24.40;63.90;;;;;;4761871;30;20059;-77
2022/07/25 07:23:19;;;;;;;5.63;4.32;;;24.50;63.70;;;;;;4771127;30;20043;-78
2022/07/25 07:25:47;;;;;;;5.72;4.00;;;24.50;63.60;;;;;;4768600;30;20062;-78
2022/07/25 07:28:15;;;;;;;6.88;4.20;;;24.60;63.50;;;;;;4797435;29;20055;-77
2022/07/25 07:30:42;;;;;;;5.47;4.07;;;24.70;63.40;;;;;;4782570;29;20055;-78
2022/07/25 07:33:29;;;;;;;3.70;2.80;;;24.80;63.30;;;;;;4769100;30;20047;-78
2022/07/25 07:35:56;;;;;;;5.18;3.47;;;24.90;63.10;;;;;;4771082;30;20047;-77
2022/07/25 07:38:24;;;;;;;5.68;3.20;;;25.00;62.90;;;;;;4788517;29;20505;-78
2022/07/25 07:40:51;;;;;;;6.50;3.78;;;25.10;62.80;;;;;;4786903;29;20106;-78
2022/07/25 07:43:19;;;;;;;4.32;3.10;;;25.10;62.70;;;;;;4791032;29;20082;-78
2022/07/25 07:45:48;;;;;;;4.50;2.47;;;25.10;63.10;;;;;;4776032;30;20039;-78
2022/07/25 07:48:15;;;;;;;4.22;2.67;;;25.10;62.70;;;;;;4776766;30;20071;-78
2022/07/25 07:50:42;;;;;;;5.35;2.55;;;25.10;62.10;;;;;;4792880;29;20086;-79
2022/07/25 07:53:09;;;;;;;3.13;1.98;;;25.10;61.70;;;;;;4773607;30;20060;-80
2022/07/25 07:55:47;;;;;;;3.85;2.38;;;25.20;61.60;;;;;;4753772;30;20055;-78
2022/07/25 07:58:17;;;;;;;3.50;2.00;;;25.40;61.30;;;;;;4800752;29;20483;-80
2022/07/25 08:00:47;;;;;;;2.95;1.55;;;25.50;60.90;;;;;;4789466;29;20118;-78
2022/07/25 08:03:19;;;;;;;2.67;1.60;;;25.50;60.60;;;;;;4785756;29;20420;-78
2022/07/25 08:05:48;;;;;;;3.03;1.35;;;25.60;60.50;;;;;;4785784;29;20074;-78
2022/07/25 08:08:15;;;;;;;2.72;1.52;;;25.60;60.20;;;;;;4791600;29;20104;-78
2022/07/25 08:10:47;;;;;;;3.00;1.40;;;25.80;60.20;;;;;;4772159;29;20051;-78
2022/07/25 08:13:23;;;;;;;3.22;1.65;;;25.90;59.90;;;;;;4778485;30;20142;-77
2022/07/25 08:15:52;;;;;;;2.92;1.67;;;26.10;59.40;;;;;;4771903;30;20090;-78
2022/07/25 08:18:20;;;;;;;2.80;1.83;;;26.10;59.30;;;;;;4770454;30;20051;-79
2022/07/25 08:20:47;;;;;;;2.38;1.35;;;26.00;59.20;;;;;;4770728;30;20440;-78
2022/07/25 08:23:15;;;;;;;2.60;1.50;;;25.80;59.40;;;;;;4791736;29;20452;-79
2022/07/25 08:25:43;;;;;;;4.07;1.48;;;25.70;60.00;;;;;;4799960;29;20063;-78
2022/07/25 08:28:11;;;;;;;1.63;1.00;;;25.50;60.30;;;;;;4789378;29;20476;-78
2022/07/25 08:30:39;;;;;;;1.70;0.90;;;25.30;59.90;;;;;;4821986;29;20088;-77
2022/07/25 08:33:09;;;;;;;2.08;1.15;;;25.40;59.70;;;;;;4778852;30;20063;-79
2022/07/25 08:35:36;;;;;;;1.55;0.88;;;25.60;59.00;;;;;;4788694;29;20055;-78
2022/07/25 08:38:04;;;;;;;1.60;0.80;;;25.80;58.30;;;;;;4761229;30;20081;-78
2022/07/25 08:40:33;;;;;;;1.80;0.90;;;26.00;57.70;;;;;;4803151;29;20047;-78
2022/07/25 08:43:00;;;;;;;2.38;1.05;;;26.10;57.40;;;;;;4779523;30;20104;-79
2022/07/25 08:45:27;;;;;;;1.17;0.63;;;26.30;57.10;;;;;;4773864;30;20128;-79
2022/07/25 08:47:55;;;;;;;1.25;0.70;;;26.30;56.80;;;;;;4770902;30;20151;-80
2022/07/25 08:50:24;;;;;;;1.73;0.60;;;26.30;56.90;;;;;;4773088;29;20553;-82
2022/07/25 08:52:52;;;;;;;1.95;0.70;;;26.20;57.00;;;;;;4793911;29;20108;-81
2022/07/25 08:55:39;;;;;;;1.33;0.50;;;26.10;56.80;;;;;;4778277;29;20047;-78
2022/07/25 08:58:06;;;;;;;1.92;0.50;;;26.10;57.10;;;;;;4781308;30;20059;-78
2022/07/25 09:00:33;;;;;;;1.63;0.70;;;26.10;57.00;;;;;;4800329;29;20451;-78
2022/07/25 09:03:02;;;;;;;1.70;0.88;;;26.10;57.00;;;;;;4803561;29;20059;-78
2022/07/25 09:05:31;;;;;;;1.20;0.75;;;26.20;57.10;;;;;;4781474;29;20116;-76
2022/07/25 09:08:12;;;;;;;2.55;0.60;;;26.40;56.90;;;;;;4772174;30;20126;-76
2022/07/25 09:10:48;;;;;;;1.73;0.70;;;26.50;56.60;;;;;;4793049;29;20461;-76
2022/07/25 09:13:16;;;;;;;1.30;0.70;;;26.50;56.70;;;;;;4777841;30;20059;-76
2022/07/25 09:15:55;;;;;;;1.58;0.63;;;26.50;57.00;;;;;;4787851;30;20108;-76
2022/07/25 09:18:24;;;;;;;2.63;0.68;;;26.40;57.10;;;;;;4773851;29;20381;-77
2022/07/25 09:20:57;;;;;;;1.75;0.77;;;26.40;57.30;;;;;;4773788;30;20531;-77
2022/07/25 09:23:33;;;;;;;1.50;0.60;;;26.30;58.10;;;;;;4798853;29;20055;-76
2022/07/25 09:26:02;;;;;;;1.15;0.52;;;26.40;57.80;;;;;;4785026;29;20476;-77
2022/07/25 09:28:29;;;;;;;2.17;0.60;;;26.50;57.80;;;;;;4782796;29;20058;-76
2022/07/25 09:30:59;;;;;;;1.17;0.55;;;26.50;57.90;;;;;;4796578;29;20124;-76
2022/07/25 09:33:28;;;;;;;1.95;0.40;;;26.30;58.20;;;;;;4786247;29;20087;-77
2022/07/25 09:35:55;;;;;;;2.40;0.55;;;26.30;58.60;;;;;;4782725;29;20105;-74
2022/07/25 09:38:24;;;;;;;1.05;0.45;;;26.10;58.80;;;;;;4783303;29;20079;-74
2022/07/25 09:41:00;;;;;;;1.17;0.40;;;26.10;59.30;;;;;;4783530;29;20126;-75
2022/07/25 09:43:43;;;;;;;2.10;0.43;;;26.00;59.60;;;;;;4775952;29;20048;-74
2022/07/25 09:46:11;;;;;;;1.17;0.40;;;26.20;59.60;;;;;;4775686;29;20051;-73
2022/07/25 09:48:42;;;;;;;1.42;0.47;;;26.40;59.40;;;;;;4781141;29;20042;-74
2022/07/25 09:51:09;;;;;;;1.90;0.40;;;26.50;59.20;;;;;;4784686;29;20043;-73
2022/07/25 09:53:36;;;;;;;1.77;0.35;;;26.60;59.80;;;;;;4785822;29;20129;-74
2022/07/25 09:56:04;;;;;;;0.98;0.38;;;26.70;59.20;;;;;;4799549;29;20150;-74
2022/07/25 09:58:31;;;;;;;0.98;0.40;;;26.80;59.00;;;;;;4799048;29;20119;-74
2022/07/25 10:01:05;;;;;;;1.05;0.30;;;26.90;58.80;;;;;;4787034;29;20131;-73
2022/07/25 10:03:51;;;;;;;0.75;0.32;;;27.00;58.50;;;;;;4769400;29;20051;-73
2022/07/25 10:06:39;;;;;;;0.60;0.20;;;27.10;58.20;;;;;;4788483;29;20043;-73
2022/07/25 10:09:13;;;;;;;1.35;0.30;;;27.10;58.20;;;;;;4781135;29;20119;-73
2022/07/25 10:12:07;;;;;;;1.45;0.30;;;26.90;58.10;;;;;;4777318;29;20147;-72
2022/07/25 10:14:35;;;;;;;0.70;0.30;;;26.90;58.20;;;;;;4776469;29;20085;-72
2022/07/25 10:17:03;;;;;;;1.35;0.30;;;27.00;58.20;;;;;;4776371;29;20508;-73
2022/07/25 10:19:47;;;;;;;1.38;0.40;;;27.10;57.90;;;;;;4776347;29;20070;-73
2022/07/25 10:22:21;;;;;;;1.27;0.30;;;27.10;57.80;;;;;;4772192;29;20051;-72
2022/07/25 10:25:17;;;;;;;1.63;0.30;;;27.10;58.40;;;;;;4777647;29;20402;-73
2022/07/25 10:27:49;;;;;;;1.55;0.40;;;27.00;57.90;;;;;;4780715;29;20078;-73
2022/07/25 10:30:22;;;;;;;0.73;0.30;;;27.30;57.90;;;;;;4782736;29;20064;-73
2022/07/25 10:32:54;;;;;;;1.30;0.40;;;27.50;57.70;;;;;;4783584;29;20112;-73
2022/07/25 10:35:21;;;;;;;0.98;0.32;;;27.70;57.50;;;;;;4779064;29;20564;-74
2022/07/25 10:37:51;;;;;;;1.10;0.40;;;27.70;57.30;;;;;;4798791;29;20097;-72
2022/07/25 10:40:38;;;;;;;3.28;0.60;;;27.70;57.30;;;;;;4783934;29;20089;-72
2022/07/25 10:43:17;;;;;;;3.47;0.50;;;27.60;57.10;;;;;;4777728;29;20160;-73
2022/07/25 10:45:57;;;;;;;1.10;0.43;;;27.50;57.30;;;;;;4787436;29;20092;-72
2022/07/25 10:48:28;;;;;;;2.72;0.77;;;27.50;57.30;;;;;;4781252;29;20406;-74
2022/07/25 10:51:05;;;;;;;1.88;0.50;;;27.50;57.00;;;;;;4794489;29;20052;-74
2022/07/25 10:53:35;;;;;;;1.92;0.55;;;27.50;56.60;;;;;;4781012;29;20071;-74
2022/07/25 10:56:08;;;;;;;1.90;0.40;;;27.50;56.20;;;;;;4789052;29;20051;-74
2022/07/25 10:58:46;;;;;;;1.80;0.50;;;27.60;56.00;;;;;;4777829;29;20050;-74
2022/07/25 11:01:18;;;;;;;1.23;0.50;;;27.60;55.30;;;;;;4785536;29;20051;-73
2022/07/25 11:03:45;;;;;;;2.78;0.70;;;27.70;55.30;;;;;;4784839;29;20046;-73
2022/07/25 11:06:13;;;;;;;2.10;0.68;;;27.60;55.00;;;;;;4789133;29;20063;-74
2022/07/25 11:08:42;;;;;;;3.00;0.80;;;27.50;55.30;;;;;;4789973;29;20043;-74
2022/07/25 11:11:10;;;;;;;1.92;0.70;;;27.50;55.30;;;;;;4786274;29;20138;-77
2022/07/25 11:13:41;;;;;;;2.28;0.68;;;27.40;54.80;;;;;;4777566;29;20104;-76
2022/07/25 11:16:09;;;;;;;0.98;0.50;;;27.50;54.80;;;;;;4790438;29;20117;-75
2022/07/25 11:18:38;;;;;;;2.58;1.10;;;27.50;54.60;;;;;;4782272;29;20100;-74
2022/07/25 11:21:07;;;;;;;4.45;0.63;;;27.50;54.50;;;;;;4784239;29;20106;-74
2022/07/25 11:23:35;;;;;;;1.95;0.60;;;27.50;54.70;;;;;;4784646;29;20078;-75
2022/07/25 11:26:11;;;;;;;2.75;0.70;;;27.50;54.70;;;;;;4753513;29;20043;-74
2022/07/25 11:28:48;;;;;;;3.40;0.82;;;27.50;54.70;;;;;;4770423;29;20051;-75
2022/07/25 11:31:17;;;;;;;1.75;0.40;;;27.50;54.80;;;;;;4764805;30;20043;-75
2022/07/25 11:33:48;;;;;;;2.80;0.60;;;27.50;55.00;;;;;;4798255;29;20485;-74
2022/07/25 11:36:16;;;;;;;2.80;0.63;;;27.40;55.00;;;;;;4799561;29;20116;-73
2022/07/25 11:38:48;;;;;;;3.33;0.63;;;27.40;55.20;;;;;;4783445;29;20128;-74
2022/07/25 11:41:15;;;;;;;0.98;0.50;;;27.40;55.30;;;;;;4784012;29;20384;-76
2022/07/25 11:43:47;;;;;;;3.55;0.77;;;27.40;55.40;;;;;;4783612;29;20043;-75
2022/07/25 11:46:16;;;;;;;2.03;0.60;;;27.30;55.30;;;;;;4785595;29;20075;-73
2022/07/25 11:48:44;;;;;;;2.30;0.65;;;27.10;55.40;;;;;;4785647;29;20035;-75
2022/07/25 11:51:17;;;;;;;2.40;0.70;;;26.90;55.70;;;;;;4785608;29;20056;-74
2022/07/25 11:53:48;;;;;;;3.05;0.50;;;26.90;55.90;;;;;;4783626;29;20143;-74
2022/07/25 11:56:20;;;;;;;2.72;0.60;;;26.70;56.10;;;;;;4781012;29;20078;-74
2022/07/25 11:59:08;;;;;;;2.92;0.60;;;26.70;56.30;;;;;;4766267;29;20465;-75
2022/07/25 12:01:38;;;;;;;2.95;0.82;;;26.50;56.10;;;;;;4799486;29;20043;-74
2022/07/25 12:04:17;;;;;;;2.58;0.90;;;26.40;56.20;;;;;;4785962;29;20050;-75
2022/07/25 12:06:48;;;;;;;1.90;0.77;;;26.30;56.60;;;;;;4786267;29;20086;-75
2022/07/25 12:09:18;;;;;;;2.40;0.90;;;26.10;56.80;;;;;;4799861;29;20055;-74
2022/07/25 12:11:47;;;;;;;2.28;0.65;;;25.90;56.90;;;;;;4772114;29;20055;-73
2022/07/25 12:14:14;;;;;;;2.50;0.88;;;25.80;56.90;;;;;;4767954;29;20121;-74
2022/07/25 12:16:41;;;;;;;1.98;0.60;;;25.90;56.90;;;;;;4775139;30;20091;-75
2022/07/25 12:19:17;;;;;;;4.20;0.70;;;26.00;56.60;;;;;;4798171;29;20042;-74
2022/07/25 12:21:45;;;;;;;3.15;0.60;;;26.20;56.10;;;;;;4788857;29;20078;-73
2022/07/25 12:24:12;;;;;;;3.15;0.77;;;26.30;55.60;;;;;;4801395;29;20091;-72
2022/07/25 12:26:39;;;;;;;3.50;0.82;;;26.40;54.80;;;;;;4788863;29;20067;-73
2022/07/25 12:29:05;;;;;;;2.20;0.90;;;26.60;54.40;;;;;;4786904;29;20108;-75
2022/07/25 12:31:33;;;;;;;2.47;0.70;;;26.90;53.70;;;;;;4789051;29;20105;-74
2022/07/25 12:34:00;;;;;;;2.92;1.08;;;26.80;53.40;;;;;;4772528;29;20458;-74
2022/07/25 12:36:27;;;;;;;2.00;0.77;;;26.60;53.60;;;;;;4773479;29;20051;-73
2022/07/25 12:38:54;;;;;;;2.60;0.80;;;26.50;53.80;;;;;;4786530;29;20105;-75
2022/07/25 12:41:22;;;;;;;2.60;0.80;;;26.40;53.90;;;;;;4803091;29;20066;-77
2022/07/25 12:43:49;;;;;;;4.13;1.10;;;26.50;54.10;;;;;;4772993;29;20043;-74
2022/07/25 12:46:16;;;;;;;3.17;1.00;;;27.20;53.70;;;;;;4795474;29;20178;-74
2022/07/25 12:48:43;;;;;;;3.10;0.93;;;27.70;52.80;;;;;;4782938;29;20116;-79
2022/07/25 12:51:11;;;;;;;3.83;0.85;;;27.60;52.40;;;;;;4785885;29;20111;-77
2022/07/25 12:53:38;;;;;;;6.28;1.40;;;27.40;52.90;;;;;;4771668;30;20056;-77
2022/07/25 12:56:08;;;;;;;3.45;1.17;;;27.10;53.10;;;;;;4782246;30;20512;-78